sensor_id;sensor_type;location;lat;lon;timestamp;P1;durP1;ratioP1;P2;durP2;ratioP2
9100;SDS011;4586;52.518;13.486;2024-01-07T00:02:56;4.80;;;2.13;;
9100;SDS011;4586;52.518;13.486;2024-01-07T00:06:58;6.80;;;2.50;;
9100;SDS011;4586;52.518;13.486;2024-01-07T00:11:01;3.10;;;2.10;;
9100;SDS011;4586;52.518;13.486;2024-01-07T00:15:06;2.63;;;1.70;;
9100;SDS011;4586;52.518;13.486;2024-01-07T00:19:08;2.77;;;1.90;;
9100;SDS011;4586;52.518;13.486;2024-01-07T00:23:11;3.93;;;2.33;;
9100;SDS011;4586;52.518;13.486;2024-01-07T00:27:13;5.33;;;2.83;;
9100;SDS011;4586;52.518;13.486;2024-01-07T00:31:15;4.63;;;2.40;;
9100;SDS011;4586;52.518;13.486;2024-01-07T00:35:17;6.43;;;3.07;;
9100;SDS011;4586;52.518;13.486;2024-01-07T00:39:20;4.70;;;2.60;;
9100;SDS011;4586;52.518;13.486;2024-01-07T00:43:23;3.03;;;2.03;;
9100;SDS011;4586;52.518;13.486;2024-01-07T00:47:25;2.43;;;2.23;;
9100;SDS011;4586;52.518;13.486;2024-01-07T00:51:27;2.90;;;1.60;;
9100;SDS011;4586;52.518;13.486;2024-01-07T00:55:29;2.33;;;1.50;;
9100;SDS011;4586;52.518;13.486;2024-01-07T00:59:32;3.20;;;1.97;;
9100;SDS011;4586;52.518;13.486;2024-01-07T01:03:34;3.37;;;1.80;;
9100;SDS011;4586;52.518;13.486;2024-01-07T01:07:36;3.10;;;1.53;;
9100;SDS011;4586;52.518;13.486;2024-01-07T01:11:38;1.80;;;1.30;;
9100;SDS011;4586;52.518;13.486;2024-01-07T01:15:41;2.23;;;1.40;;
9100;SDS011;4586;52.518;13.486;2024-01-07T01:19:43;1.53;;;1.23;;
9100;SDS011;4586;52.518;13.486;2024-01-07T01:23:46;3.20;;;2.13;;
9100;SDS011;4586;52.518;13.486;2024-01-07T01:27:48;6.60;;;3.17;;
9100;SDS011;4586;52.518;13.486;2024-01-07T01:31:50;2.47;;;1.43;;
9100;SDS011;4586;52.518;13.486;2024-01-07T01:35:52;2.10;;;1.20;;
9100;SDS011;4586;52.518;13.486;2024-01-07T01:39:54;2.13;;;1.40;;
9100;SDS011;4586;52.518;13.486;2024-01-07T01:43:57;2.00;;;1.70;;
9100;SDS011;4586;52.518;13.486;2024-01-07T01:48:00;3.17;;;1.80;;
9100;SDS011;4586;52.518;13.486;2024-01-07T01:52:02;4.40;;;1.80;;
9100;SDS011;4586;52.518;13.486;2024-01-07T01:56:05;4.07;;;1.97;;
9100;SDS011;4586;52.518;13.486;2024-01-07T02:00:07;1.97;;;1.50;;
9100;SDS011;4586;52.518;13.486;2024-01-07T02:04:10;2.97;;;1.70;;
9100;SDS011;4586;52.518;13.486;2024-01-07T02:08:12;4.87;;;1.53;;
9100;SDS011;4586;52.518;13.486;2024-01-07T02:12:14;2.37;;;1.63;;
9100;SDS011;4586;52.518;13.486;2024-01-07T02:16:17;2.87;;;1.60;;
9100;SDS011;4586;52.518;13.486;2024-01-07T02:20:19;2.60;;;1.90;;
9100;SDS011;4586;52.518;13.486;2024-01-07T02:24:21;3.43;;;1.43;;
9100;SDS011;4586;52.518;13.486;2024-01-07T02:28:23;5.70;;;3.27;;
9100;SDS011;4586;52.518;13.486;2024-01-07T02:32:25;2.47;;;1.70;;
9100;SDS011;4586;52.518;13.486;2024-01-07T02:36:28;1.73;;;1.40;;
9100;SDS011;4586;52.518;13.486;2024-01-07T02:40:30;2.63;;;1.50;;
9100;SDS011;4586;52.518;13.486;2024-01-07T02:44:32;1.87;;;1.40;;
9100;SDS011;4586;52.518;13.486;2024-01-07T02:48:34;23.23;;;12.00;;
9100;SDS011;4586;52.518;13.486;2024-01-07T02:52:37;2.23;;;1.77;;
9100;SDS011;4586;52.518;13.486;2024-01-07T02:56:48;11.20;;;6.07;;
9100;SDS011;4586;52.518;13.486;2024-01-07T03:00:50;1.60;;;1.27;;
9100;SDS011;4586;52.518;13.486;2024-01-07T03:04:52;3.77;;;1.97;;
9100;SDS011;4586;52.518;13.486;2024-01-07T03:08:54;1.60;;;1.50;;
9100;SDS011;4586;52.518;13.486;2024-01-07T03:12:56;4.90;;;2.80;;
9100;SDS011;4586;52.518;13.486;2024-01-07T03:16:59;3.33;;;2.03;;
9100;SDS011;4586;52.518;13.486;2024-01-07T03:21:01;2.90;;;1.43;;
9100;SDS011;4586;52.518;13.486;2024-01-07T03:25:03;3.93;;;2.57;;
9100;SDS011;4586;52.518;13.486;2024-01-07T03:29:05;3.33;;;2.27;;
9100;SDS011;4586;52.518;13.486;2024-01-07T03:33:08;3.07;;;2.00;;
9100;SDS011;4586;52.518;13.486;2024-01-07T03:37:10;2.43;;;1.50;;
9100;SDS011;4586;52.518;13.486;2024-01-07T03:41:16;2.03;;;1.50;;
9100;SDS011;4586;52.518;13.486;2024-01-07T03:45:18;3.17;;;1.90;;
9100;SDS011;4586;52.518;13.486;2024-01-07T03:49:20;2.47;;;1.50;;
9100;SDS011;4586;52.518;13.486;2024-01-07T03:53:22;1.70;;;1.60;;
9100;SDS011;4586;52.518;13.486;2024-01-07T03:57:24;3.50;;;1.57;;
9100;SDS011;4586;52.518;13.486;2024-01-07T04:01:27;1.50;;;1.40;;
9100;SDS011;4586;52.518;13.486;2024-01-07T04:05:29;2.70;;;1.63;;
9100;SDS011;4586;52.518;13.486;2024-01-07T04:09:31;3.10;;;1.50;;
9100;SDS011;4586;52.518;13.486;2024-01-07T04:13:33;2.20;;;1.60;;
9100;SDS011;4586;52.518;13.486;2024-01-07T04:17:36;2.50;;;1.87;;
9100;SDS011;4586;52.518;13.486;2024-01-07T04:21:38;3.50;;;1.53;;
9100;SDS011;4586;52.518;13.486;2024-01-07T04:25:40;1.90;;;1.70;;
9100;SDS011;4586;52.518;13.486;2024-01-07T04:29:42;2.10;;;1.40;;
9100;SDS011;4586;52.518;13.486;2024-01-07T04:33:44;2.10;;;1.43;;
9100;SDS011;4586;52.518;13.486;2024-01-07T04:37:47;2.97;;;1.53;;
9100;SDS011;4586;52.518;13.486;2024-01-07T04:41:49;1.50;;;1.40;;
9100;SDS011;4586;52.518;13.486;2024-01-07T04:45:51;1.80;;;1.27;;
9100;SDS011;4586;52.518;13.486;2024-01-07T04:49:54;2.07;;;1.80;;
9100;SDS011;4586;52.518;13.486;2024-01-07T04:53:56;2.57;;;1.60;;
9100;SDS011;4586;52.518;13.486;2024-01-07T04:57:58;2.07;;;1.50;;
9100;SDS011;4586;52.518;13.486;2024-01-07T05:02:00;2.03;;;1.50;;
9100;SDS011;4586;52.518;13.486;2024-01-07T05:06:03;2.47;;;1.57;;
9100;SDS011;4586;52.518;13.486;2024-01-07T05:10:05;4.80;;;1.50;;
9100;SDS011;4586;52.518;13.486;2024-01-07T05:14:08;1.40;;;1.07;;
9100;SDS011;4586;52.518;13.486;2024-01-07T05:18:10;2.17;;;1.57;;
9100;SDS011;4586;52.518;13.486;2024-01-07T05:22:12;2.63;;;1.20;;
9100;SDS011;4586;52.518;13.486;2024-01-07T05:26:14;3.13;;;1.70;;
9100;SDS011;4586;52.518;13.486;2024-01-07T05:30:17;3.53;;;1.80;;
9100;SDS011;4586;52.518;13.486;2024-01-07T05:34:19;2.20;;;1.43;;
9100;SDS011;4586;52.518;13.486;2024-01-07T05:38:21;2.97;;;1.70;;
9100;SDS011;4586;52.518;13.486;2024-01-07T05:42:23;2.73;;;1.63;;
9100;SDS011;4586;52.518;13.486;2024-01-07T05:46:26;2.97;;;1.70;;
9100;SDS011;4586;52.518;13.486;2024-01-07T05:50:28;3.40;;;2.13;;
9100;SDS011;4586;52.518;13.486;2024-01-07T05:54:30;1.80;;;1.50;;
9100;SDS011;4586;52.518;13.486;2024-01-07T05:58:32;4.17;;;1.80;;
9100;SDS011;4586;52.518;13.486;2024-01-07T06:02:35;2.27;;;1.70;;
9100;SDS011;4586;52.518;13.486;2024-01-07T06:06:37;3.23;;;2.03;;
9100;SDS011;4586;52.518;13.486;2024-01-07T06:10:40;3.50;;;1.80;;
9100;SDS011;4586;52.518;13.486;2024-01-07T06:14:42;3.03;;;1.80;;
9100;SDS011;4586;52.518;13.486;2024-01-07T06:18:44;3.13;;;2.00;;
9100;SDS011;4586;52.518;13.486;2024-01-07T06:22:47;4.03;;;2.10;;
9100;SDS011;4586;52.518;13.486;2024-01-07T06:26:49;3.60;;;1.90;;
9100;SDS011;4586;52.518;13.486;2024-01-07T06:30:51;2.80;;;1.93;;
9100;SDS011;4586;52.518;13.486;2024-01-07T06:34:59;3.33;;;2.10;;
9100;SDS011;4586;52.518;13.486;2024-01-07T06:39:01;2.10;;;1.87;;
9100;SDS011;4586;52.518;13.486;2024-01-07T06:43:04;3.30;;;2.00;;
9100;SDS011;4586;52.518;13.486;2024-01-07T06:47:06;5.00;;;2.70;;
9100;SDS011;4586;52.518;13.486;2024-01-07T06:51:08;2.20;;;1.67;;
9100;SDS011;4586;52.518;13.486;2024-01-07T06:55:10;2.20;;;2.00;;
9100;SDS011;4586;52.518;13.486;2024-01-07T06:59:13;1.83;;;1.47;;
9100;SDS011;4586;52.518;13.486;2024-01-07T07:03:15;2.80;;;1.73;;
9100;SDS011;4586;52.518;13.486;2024-01-07T07:07:17;2.90;;;2.00;;
9100;SDS011;4586;52.518;13.486;2024-01-07T07:11:19;4.57;;;2.93;;
9100;SDS011;4586;52.518;13.486;2024-01-07T07:15:21;2.63;;;1.67;;
9100;SDS011;4586;52.518;13.486;2024-01-07T07:19:23;3.33;;;1.87;;
9100;SDS011;4586;52.518;13.486;2024-01-07T07:23:26;2.43;;;1.83;;
9100;SDS011;4586;52.518;13.486;2024-01-07T07:27:28;2.17;;;1.50;;
9100;SDS011;4586;52.518;13.486;2024-01-07T07:31:30;1.70;;;1.20;;
9100;SDS011;4586;52.518;13.486;2024-01-07T07:35:33;3.93;;;1.80;;
9100;SDS011;4586;52.518;13.486;2024-01-07T07:39:35;3.13;;;1.80;;
9100;SDS011;4586;52.518;13.486;2024-01-07T07:43:37;2.17;;;1.70;;
9100;SDS011;4586;52.518;13.486;2024-01-07T07:47:39;2.10;;;1.80;;
9100;SDS011;4586;52.518;13.486;2024-01-07T07:51:43;3.33;;;2.00;;
9100;SDS011;4586;52.518;13.486;2024-01-07T07:55:45;3.00;;;1.77;;
9100;SDS011;4586;52.518;13.486;2024-01-07T07:59:48;2.47;;;1.70;;
9100;SDS011;4586;52.518;13.486;2024-01-07T08:03:50;2.07;;;1.63;;
9100;SDS011;4586;52.518;13.486;2024-01-07T08:07:52;19.20;;;3.97;;
9100;SDS011;4586;52.518;13.486;2024-01-07T08:11:54;2.00;;;1.63;;
9100;SDS011;4586;52.518;13.486;2024-01-07T08:15:56;4.33;;;2.10;;
9100;SDS011;4586;52.518;13.486;2024-01-07T08:19:59;4.03;;;1.93;;
9100;SDS011;4586;52.518;13.486;2024-01-07T08:24:01;3.43;;;1.80;;
9100;SDS011;4586;52.518;13.486;2024-01-07T08:28:03;3.57;;;1.90;;
9100;SDS011;4586;52.518;13.486;2024-01-07T08:32:05;2.97;;;1.87;;
9100;SDS011;4586;52.518;13.486;2024-01-07T08:36:08;2.13;;;1.50;;
9100;SDS011;4586;52.518;13.486;2024-01-07T08:40:10;2.67;;;1.87;;
9100;SDS011;4586;52.518;13.486;2024-01-07T08:44:12;3.40;;;2.43;;
9100;SDS011;4586;52.518;13.486;2024-01-07T08:48:15;2.03;;;1.80;;
9100;SDS011;4586;52.518;13.486;2024-01-07T08:52:17;2.63;;;1.70;;
9100;SDS011;4586;52.518;13.486;2024-01-07T08:56:19;3.43;;;2.10;;
9100;SDS011;4586;52.518;13.486;2024-01-07T09:00:21;2.50;;;2.10;;
9100;SDS011;4586;52.518;13.486;2024-01-07T09:04:24;3.23;;;2.10;;
9100;SDS011;4586;52.518;13.486;2024-01-07T09:08:26;2.60;;;2.10;;
9100;SDS011;4586;52.518;13.486;2024-01-07T09:12:28;4.03;;;1.93;;
9100;SDS011;4586;52.518;13.486;2024-01-07T09:16:30;2.90;;;2.33;;
9100;SDS011;4586;52.518;13.486;2024-01-07T09:20:32;2.50;;;2.00;;
9100;SDS011;4586;52.518;13.486;2024-01-07T09:24:35;3.07;;;2.30;;
9100;SDS011;4586;52.518;13.486;2024-01-07T09:28:37;2.83;;;2.50;;
9100;SDS011;4586;52.518;13.486;2024-01-07T09:32:39;2.83;;;2.13;;
9100;SDS011;4586;52.518;13.486;2024-01-07T09:36:41;3.67;;;2.53;;
9100;SDS011;4586;52.518;13.486;2024-01-07T09:40:44;4.07;;;2.70;;
9100;SDS011;4586;52.518;13.486;2024-01-07T09:44:46;5.43;;;3.10;;
9100;SDS011;4586;52.518;13.486;2024-01-07T09:48:48;5.37;;;3.00;;
9100;SDS011;4586;52.518;13.486;2024-01-07T09:52:50;4.60;;;2.50;;
9100;SDS011;4586;52.518;13.486;2024-01-07T09:56:55;6.00;;;2.90;;
9100;SDS011;4586;52.518;13.486;2024-01-07T10:01:02;5.43;;;3.07;;
9100;SDS011;4586;52.518;13.486;2024-01-07T10:05:04;4.47;;;2.87;;
9100;SDS011;4586;52.518;13.486;2024-01-07T10:09:07;4.50;;;3.10;;
9100;SDS011;4586;52.518;13.486;2024-01-07T10:13:09;4.63;;;3.03;;
9100;SDS011;4586;52.518;13.486;2024-01-07T10:17:17;7.23;;;3.40;;
9100;SDS011;4586;52.518;13.486;2024-01-07T10:21:19;7.50;;;3.20;;
9100;SDS011;4586;52.518;13.486;2024-01-07T10:25:21;4.80;;;3.30;;
9100;SDS011;4586;52.518;13.486;2024-01-07T10:29:23;5.33;;;2.87;;
9100;SDS011;4586;52.518;13.486;2024-01-07T10:33:30;6.77;;;3.40;;
9100;SDS011;4586;52.518;13.486;2024-01-07T10:37:32;6.93;;;4.00;;
9100;SDS011;4586;52.518;13.486;2024-01-07T10:41:35;3.27;;;2.83;;
9100;SDS011;4586;52.518;13.486;2024-01-07T10:45:39;5.10;;;3.70;;
9100;SDS011;4586;52.518;13.486;2024-01-07T10:49:41;15.90;;;7.90;;
9100;SDS011;4586;52.518;13.486;2024-01-07T10:53:46;5.70;;;3.30;;
9100;SDS011;4586;52.518;13.486;2024-01-07T10:57:53;5.03;;;2.87;;
9100;SDS011;4586;52.518;13.486;2024-01-07T11:01:55;4.93;;;3.63;;
9100;SDS011;4586;52.518;13.486;2024-01-07T11:06:03;6.37;;;3.97;;
9100;SDS011;4586;52.518;13.486;2024-01-07T11:10:10;7.57;;;4.03;;
9100;SDS011;4586;52.518;13.486;2024-01-07T11:18:37;7.30;;;3.43;;
9100;SDS011;4586;52.518;13.486;2024-01-07T11:22:40;4.67;;;2.97;;
9100;SDS011;4586;52.518;13.486;2024-01-07T11:26:42;6.93;;;3.63;;
9100;SDS011;4586;52.518;13.486;2024-01-07T11:30:45;6.17;;;3.50;;
9100;SDS011;4586;52.518;13.486;2024-01-07T11:34:47;5.67;;;3.53;;
9100;SDS011;4586;52.518;13.486;2024-01-07T11:38:50;6.57;;;3.57;;
9100;SDS011;4586;52.518;13.486;2024-01-07T11:42:55;6.00;;;3.13;;
9100;SDS011;4586;52.518;13.486;2024-01-07T11:46:57;4.03;;;2.93;;
9100;SDS011;4586;52.518;13.486;2024-01-07T11:50:59;5.93;;;3.03;;
9100;SDS011;4586;52.518;13.486;2024-01-07T11:55:02;5.30;;;2.70;;
9100;SDS011;4586;52.518;13.486;2024-01-07T11:59:04;6.77;;;3.43;;
9100;SDS011;4586;52.518;13.486;2024-01-07T12:03:06;4.60;;;3.00;;
9100;SDS011;4586;52.518;13.486;2024-01-07T12:07:09;6.40;;;2.90;;
9100;SDS011;4586;52.518;13.486;2024-01-07T12:11:12;4.00;;;2.83;;
9100;SDS011;4586;52.518;13.486;2024-01-07T12:15:14;4.60;;;2.87;;
9100;SDS011;4586;52.518;13.486;2024-01-07T12:19:16;4.47;;;2.77;;
9100;SDS011;4586;52.518;13.486;2024-01-07T12:23:19;4.67;;;3.17;;
9100;SDS011;4586;52.518;13.486;2024-01-07T12:27:21;5.57;;;2.70;;
9100;SDS011;4586;52.518;13.486;2024-01-07T12:31:26;4.60;;;2.87;;
9100;SDS011;4586;52.518;13.486;2024-01-07T12:35:28;6.93;;;3.40;;
9100;SDS011;4586;52.518;13.486;2024-01-07T12:39:31;5.43;;;3.10;;
9100;SDS011;4586;52.518;13.486;2024-01-07T12:43:33;2.93;;;2.23;;
9100;SDS011;4586;52.518;13.486;2024-01-07T12:47:35;4.30;;;2.90;;
9100;SDS011;4586;52.518;13.486;2024-01-07T12:51:38;4.80;;;2.80;;
9100;SDS011;4586;52.518;13.486;2024-01-07T12:55:40;6.23;;;3.03;;
9100;SDS011;4586;52.518;13.486;2024-01-07T12:59:42;5.53;;;2.90;;
9100;SDS011;4586;52.518;13.486;2024-01-07T13:03:44;3.77;;;2.50;;
9100;SDS011;4586;52.518;13.486;2024-01-07T13:07:47;4.80;;;2.50;;
9100;SDS011;4586;52.518;13.486;2024-01-07T13:11:49;2.87;;;2.30;;
9100;SDS011;4586;52.518;13.486;2024-01-07T13:15:51;3.63;;;2.53;;
9100;SDS011;4586;52.518;13.486;2024-01-07T13:19:54;3.23;;;2.70;;
9100;SDS011;4586;52.518;13.486;2024-01-07T13:23:56;4.17;;;2.90;;
9100;SDS011;4586;52.518;13.486;2024-01-07T13:27:58;5.13;;;2.40;;
9100;SDS011;4586;52.518;13.486;2024-01-07T13:32:00;3.87;;;2.70;;
9100;SDS011;4586;52.518;13.486;2024-01-07T13:36:03;4.27;;;2.50;;
9100;SDS011;4586;52.518;13.486;2024-01-07T13:40:05;3.67;;;2.40;;
9100;SDS011;4586;52.518;13.486;2024-01-07T13:44:08;3.60;;;2.50;;
9100;SDS011;4586;52.518;13.486;2024-01-07T13:48:10;4.97;;;2.43;;
9100;SDS011;4586;52.518;13.486;2024-01-07T13:52:12;4.37;;;2.40;;
9100;SDS011;4586;52.518;13.486;2024-01-07T13:56:16;2.73;;;2.27;;
9100;SDS011;4586;52.518;13.486;2024-01-07T14:00:18;3.30;;;2.17;;
9100;SDS011;4586;52.518;13.486;2024-01-07T14:04:21;5.83;;;2.40;;
9100;SDS011;4586;52.518;13.486;2024-01-07T14:08:23;2.60;;;1.87;;
9100;SDS011;4586;52.518;13.486;2024-01-07T14:12:25;4.20;;;2.60;;
9100;SDS011;4586;52.518;13.486;2024-01-07T14:16:27;3.40;;;1.97;;
9100;SDS011;4586;52.518;13.486;2024-01-07T14:20:30;2.33;;;1.90;;
9100;SDS011;4586;52.518;13.486;2024-01-07T14:24:32;3.33;;;2.00;;
9100;SDS011;4586;52.518;13.486;2024-01-07T14:28:34;2.73;;;1.90;;
9100;SDS011;4586;52.518;13.486;2024-01-07T14:32:36;3.07;;;2.03;;
9100;SDS011;4586;52.518;13.486;2024-01-07T14:36:41;2.53;;;1.77;;
9100;SDS011;4586;52.518;13.486;2024-01-07T14:40:43;3.07;;;2.17;;
9100;SDS011;4586;52.518;13.486;2024-01-07T14:44:45;4.43;;;1.93;;
9100;SDS011;4586;52.518;13.486;2024-01-07T14:48:52;1.97;;;1.70;;
9100;SDS011;4586;52.518;13.486;2024-01-07T14:52:54;2.50;;;1.73;;
9100;SDS011;4586;52.518;13.486;2024-01-07T14:56:56;3.13;;;2.20;;
9100;SDS011;4586;52.518;13.486;2024-01-07T15:00:58;2.93;;;1.90;;
9100;SDS011;4586;52.518;13.486;2024-01-07T15:05:01;4.83;;;2.40;;
9100;SDS011;4586;52.518;13.486;2024-01-07T15:09:04;3.30;;;2.37;;
9100;SDS011;4586;52.518;13.486;2024-01-07T15:13:06;4.40;;;2.93;;
9100;SDS011;4586;52.518;13.486;2024-01-07T15:17:19;4.20;;;2.90;;
9100;SDS011;4586;52.518;13.486;2024-01-07T15:21:21;2.80;;;2.30;;
9100;SDS011;4586;52.518;13.486;2024-01-07T15:25:24;3.07;;;2.27;;
9100;SDS011;4586;52.518;13.486;2024-01-07T15:29:26;4.43;;;2.87;;
9100;SDS011;4586;52.518;13.486;2024-01-07T15:33:28;3.77;;;2.50;;
9100;SDS011;4586;52.518;13.486;2024-01-07T15:37:31;4.23;;;2.40;;
9100;SDS011;4586;52.518;13.486;2024-01-07T15:41:33;3.43;;;2.23;;
9100;SDS011;4586;52.518;13.486;2024-01-07T15:45:35;3.90;;;2.63;;
9100;SDS011;4586;52.518;13.486;2024-01-07T15:49:38;3.50;;;2.43;;
9100;SDS011;4586;52.518;13.486;2024-01-07T15:53:40;4.53;;;2.60;;
9100;SDS011;4586;52.518;13.486;2024-01-07T15:57:42;5.33;;;2.63;;
9100;SDS011;4586;52.518;13.486;2024-01-07T16:01:47;5.37;;;2.83;;
9100;SDS011;4586;52.518;13.486;2024-01-07T16:05:50;4.17;;;2.97;;
9100;SDS011;4586;52.518;13.486;2024-01-07T16:09:52;5.73;;;3.10;;
9100;SDS011;4586;52.518;13.486;2024-01-07T16:13:54;2.57;;;2.20;;
9100;SDS011;4586;52.518;13.486;2024-01-07T16:17:56;4.10;;;2.30;;
9100;SDS011;4586;52.518;13.486;2024-01-07T16:21:59;4.13;;;2.53;;
9100;SDS011;4586;52.518;13.486;2024-01-07T16:26:01;3.97;;;2.70;;
9100;SDS011;4586;52.518;13.486;2024-01-07T16:30:03;4.80;;;2.57;;
9100;SDS011;4586;52.518;13.486;2024-01-07T16:34:06;3.37;;;2.50;;
9100;SDS011;4586;52.518;13.486;2024-01-07T16:38:08;5.07;;;2.87;;
9100;SDS011;4586;52.518;13.486;2024-01-07T16:42:11;2.60;;;2.13;;
9100;SDS011;4586;52.518;13.486;2024-01-07T16:46:13;5.20;;;2.57;;
9100;SDS011;4586;52.518;13.486;2024-01-07T16:50:15;3.80;;;2.43;;
9100;SDS011;4586;52.518;13.486;2024-01-07T16:54:25;4.07;;;2.67;;
9100;SDS011;4586;52.518;13.486;2024-01-07T16:58:27;4.63;;;2.30;;
9100;SDS011;4586;52.518;13.486;2024-01-07T17:02:29;4.20;;;2.70;;
9100;SDS011;4586;52.518;13.486;2024-01-07T17:06:31;4.40;;;3.00;;
9100;SDS011;4586;52.518;13.486;2024-01-07T17:10:34;3.40;;;2.73;;
9100;SDS011;4586;52.518;13.486;2024-01-07T17:14:37;3.37;;;2.80;;
9100;SDS011;4586;52.518;13.486;2024-01-07T17:18:39;4.73;;;2.83;;
9100;SDS011;4586;52.518;13.486;2024-01-07T17:22:42;3.77;;;2.90;;
9100;SDS011;4586;52.518;13.486;2024-01-07T17:26:44;4.67;;;2.67;;
9100;SDS011;4586;52.518;13.486;2024-01-07T17:30:46;3.43;;;2.83;;
9100;SDS011;4586;52.518;13.486;2024-01-07T17:34:48;4.10;;;2.73;;
9100;SDS011;4586;52.518;13.486;2024-01-07T17:38:51;3.47;;;2.90;;
9100;SDS011;4586;52.518;13.486;2024-01-07T17:42:53;4.37;;;2.73;;
9100;SDS011;4586;52.518;13.486;2024-01-07T17:46:55;3.40;;;2.70;;
9100;SDS011;4586;52.518;13.486;2024-01-07T17:50:58;5.30;;;3.23;;
9100;SDS011;4586;52.518;13.486;2024-01-07T17:55:00;4.47;;;3.33;;
9100;SDS011;4586;52.518;13.486;2024-01-07T17:59:03;5.53;;;3.40;;
9100;SDS011;4586;52.518;13.486;2024-01-07T18:03:05;9.33;;;4.67;;
9100;SDS011;4586;52.518;13.486;2024-01-07T18:07:08;5.00;;;3.37;;
9100;SDS011;4586;52.518;13.486;2024-01-07T18:11:10;4.23;;;3.10;;
9100;SDS011;4586;52.518;13.486;2024-01-07T18:15:12;4.23;;;2.63;;
9100;SDS011;4586;52.518;13.486;2024-01-07T18:19:15;3.90;;;2.90;;
9100;SDS011;4586;52.518;13.486;2024-01-07T18:23:17;5.47;;;3.90;;
9100;SDS011;4586;52.518;13.486;2024-01-07T18:27:20;5.83;;;3.70;;
9100;SDS011;4586;52.518;13.486;2024-01-07T18:31:22;6.03;;;3.40;;
9100;SDS011;4586;52.518;13.486;2024-01-07T18:35:24;4.47;;;2.83;;
9100;SDS011;4586;52.518;13.486;2024-01-07T18:39:26;5.13;;;3.37;;
9100;SDS011;4586;52.518;13.486;2024-01-07T18:43:28;3.17;;;2.87;;
9100;SDS011;4586;52.518;13.486;2024-01-07T18:47:30;3.27;;;2.57;;
9100;SDS011;4586;52.518;13.486;2024-01-07T18:51:33;4.03;;;2.30;;
9100;SDS011;4586;52.518;13.486;2024-01-07T18:55:35;3.90;;;2.70;;
9100;SDS011;4586;52.518;13.486;2024-01-07T18:59:37;5.13;;;3.07;;
9100;SDS011;4586;52.518;13.486;2024-01-07T19:03:39;3.27;;;2.33;;
9100;SDS011;4586;52.518;13.486;2024-01-07T19:07:42;4.47;;;2.73;;
9100;SDS011;4586;52.518;13.486;2024-01-07T19:11:44;6.80;;;2.97;;
9100;SDS011;4586;52.518;13.486;2024-01-07T19:15:46;4.17;;;2.63;;
9100;SDS011;4586;52.518;13.486;2024-01-07T19:19:48;4.47;;;2.90;;
9100;SDS011;4586;52.518;13.486;2024-01-07T19:23:50;4.90;;;2.93;;
9100;SDS011;4586;52.518;13.486;2024-01-07T19:27:52;6.30;;;3.77;;
9100;SDS011;4586;52.518;13.486;2024-01-07T19:31:55;4.17;;;3.40;;
9100;SDS011;4586;52.518;13.486;2024-01-07T19:35:57;6.30;;;3.40;;
9100;SDS011;4586;52.518;13.486;2024-01-07T19:40:02;5.10;;;3.47;;
9100;SDS011;4586;52.518;13.486;2024-01-07T19:44:05;5.37;;;3.07;;
9100;SDS011;4586;52.518;13.486;2024-01-07T19:48:07;4.63;;;3.20;;
9100;SDS011;4586;52.518;13.486;2024-01-07T19:52:09;4.97;;;3.33;;
9100;SDS011;4586;52.518;13.486;2024-01-07T19:56:11;4.33;;;2.73;;
9100;SDS011;4586;52.518;13.486;2024-01-07T20:00:13;4.90;;;3.40;;
9100;SDS011;4586;52.518;13.486;2024-01-07T20:04:16;5.20;;;2.87;;
9100;SDS011;4586;52.518;13.486;2024-01-07T20:08:21;5.77;;;3.37;;
9100;SDS011;4586;52.518;13.486;2024-01-07T20:12:23;4.73;;;3.10;;
9100;SDS011;4586;52.518;13.486;2024-01-07T20:16:25;4.43;;;3.20;;
9100;SDS011;4586;52.518;13.486;2024-01-07T20:20:27;5.33;;;3.47;;
9100;SDS011;4586;52.518;13.486;2024-01-07T20:24:30;8.17;;;4.10;;
9100;SDS011;4586;52.518;13.486;2024-01-07T20:28:32;5.53;;;3.50;;
9100;SDS011;4586;52.518;13.486;2024-01-07T20:32:34;7.20;;;4.03;;
9100;SDS011;4586;52.518;13.486;2024-01-07T20:36:36;6.83;;;3.77;;
9100;SDS011;4586;52.518;13.486;2024-01-07T20:40:39;5.97;;;3.80;;
9100;SDS011;4586;52.518;13.486;2024-01-07T20:44:42;7.27;;;3.93;;
9100;SDS011;4586;52.518;13.486;2024-01-07T20:48:44;7.17;;;4.00;;
9100;SDS011;4586;52.518;13.486;2024-01-07T20:52:46;6.30;;;4.17;;
9100;SDS011;4586;52.518;13.486;2024-01-07T20:56:49;6.43;;;4.27;;
9100;SDS011;4586;52.518;13.486;2024-01-07T21:00:51;6.20;;;3.70;;
9100;SDS011;4586;52.518;13.486;2024-01-07T21:04:53;7.73;;;4.40;;
9100;SDS011;4586;52.518;13.486;2024-01-07T21:08:55;7.23;;;4.90;;
9100;SDS011;4586;52.518;13.486;2024-01-07T21:12:58;8.23;;;4.50;;
9100;SDS011;4586;52.518;13.486;2024-01-07T21:17:00;7.73;;;4.40;;
9100;SDS011;4586;52.518;13.486;2024-01-07T21:21:02;8.53;;;4.57;;
9100;SDS011;4586;52.518;13.486;2024-01-07T21:25:05;6.67;;;4.07;;
9100;SDS011;4586;52.518;13.486;2024-01-07T21:29:07;7.37;;;4.40;;
9100;SDS011;4586;52.518;13.486;2024-01-07T21:33:09;9.17;;;4.60;;
9100;SDS011;4586;52.518;13.486;2024-01-07T21:37:12;8.00;;;4.83;;
9100;SDS011;4586;52.518;13.486;2024-01-07T21:41:14;6.87;;;4.27;;
9100;SDS011;4586;52.518;13.486;2024-01-07T21:45:16;8.53;;;5.00;;
9100;SDS011;4586;52.518;13.486;2024-01-07T21:49:18;10.03;;;5.27;;
9100;SDS011;4586;52.518;13.486;2024-01-07T21:53:20;7.47;;;4.60;;
9100;SDS011;4586;52.518;13.486;2024-01-07T21:57:23;7.87;;;4.63;;
9100;SDS011;4586;52.518;13.486;2024-01-07T22:01:25;8.20;;;4.23;;
9100;SDS011;4586;52.518;13.486;2024-01-07T22:05:28;10.70;;;4.97;;
9100;SDS011;4586;52.518;13.486;2024-01-07T22:09:30;8.87;;;4.70;;
9100;SDS011;4586;52.518;13.486;2024-01-07T22:13:32;9.33;;;4.80;;
9100;SDS011;4586;52.518;13.486;2024-01-07T22:17:35;7.33;;;4.57;;
9100;SDS011;4586;52.518;13.486;2024-01-07T22:21:37;8.00;;;4.60;;
9100;SDS011;4586;52.518;13.486;2024-01-07T22:25:39;8.20;;;4.93;;
9100;SDS011;4586;52.518;13.486;2024-01-07T22:29:41;9.17;;;5.27;;
9100;SDS011;4586;52.518;13.486;2024-01-07T22:33:44;7.67;;;4.67;;
9100;SDS011;4586;52.518;13.486;2024-01-07T22:37:46;7.10;;;4.63;;
9100;SDS011;4586;52.518;13.486;2024-01-07T22:41:48;10.07;;;5.93;;
9100;SDS011;4586;52.518;13.486;2024-01-07T22:45:51;11.17;;;5.83;;
9100;SDS011;4586;52.518;13.486;2024-01-07T22:49:53;10.90;;;5.27;;
9100;SDS011;4586;52.518;13.486;2024-01-07T22:53:56;10.97;;;5.40;;
9100;SDS011;4586;52.518;13.486;2024-01-07T22:57:59;13.70;;;5.53;;
9100;SDS011;4586;52.518;13.486;2024-01-07T23:02:01;13.23;;;6.03;;
9100;SDS011;4586;52.518;13.486;2024-01-07T23:06:06;12.57;;;5.73;;
9100;SDS011;4586;52.518;13.486;2024-01-07T23:10:09;10.37;;;5.60;;
9100;SDS011;4586;52.518;13.486;2024-01-07T23:18:14;11.00;;;5.20;;
9100;SDS011;4586;52.518;13.486;2024-01-07T23:22:16;10.47;;;4.73;;
9100;SDS011;4586;52.518;13.486;2024-01-07T23:26:18;8.60;;;5.20;;
9100;SDS011;4586;52.518;13.486;2024-01-07T23:30:21;6.83;;;4.10;;
9100;SDS011;4586;52.518;13.486;2024-01-07T23:34:23;7.67;;;5.00;;
9100;SDS011;4586;52.518;13.486;2024-01-07T23:38:25;8.33;;;5.10;;
9100;SDS011;4586;52.518;13.486;2024-01-07T23:42:28;9.73;;;4.97;;
9100;SDS011;4586;52.518;13.486;2024-01-07T23:46:30;8.37;;;5.30;;
9100;SDS011;4586;52.518;13.486;2024-01-07T23:50:32;11.53;;;5.13;;
9100;SDS011;4586;52.518;13.486;2024-01-07T23:54:35;9.87;;;5.37;;
9100;SDS011;4586;52.518;13.486;2024-01-07T23:58:37;9.13;;;4.93;;
